North West, OR

6:21 PM PDT on September 22, 2014 (GMT -0700)
Downtown | Change Station
CLOSE
Current Station
Personal Weather Station
Location: Gresham, OR
Elevation: 315 ft
Nearby Weather Stations
Active Advisory: Special Statement

Elev 315 ft 45.50 °N, 122.43 °W | Updated 3 minutes ago

Partly Cloudy
Partly Cloudy
66.7 °F
Feels Like 66.7 °F
N
0.0
Wind Variable Wind from NE
Gusts 0.0 mph

Today
High -- | Low -- °F
--% Chance of Precip.
Yesterday
High -- | Low -- °F
Precip. -- in
6:56 AM 7:07 PM
Waning Crescent, 1% visible
Pressure 29.91 in
Visibility 10.0 miles
Clouds Clear
Dew Point 57 °F
Humidity 70%
Rainfall 0.00 in
Snow Depth 0 in , 0 in , 0 in
UV 1 out of 12
Pollen 2.20 out of 12
Ozone Good
PM2.5 Good
Flu Activity Not available.
METAR KTTD 230053Z 00000KT 10SM CLR 21/12 A2991 RMK AO2 SLP129 T02060122

More Conditions Fewer Conditions

Pressure 29.91 in
Visibility 10.0 miles
Clouds Clear
Dew Point 57 °F
Humidity 70%
Rainfall 0.00 in
Snow Depth 0 in , 0 in , 0 in
UV 1 out of 12
Pollen 2.20 out of 12
Ozone Good
PM2.5 Good
Flu Activity Not available.
METAR KTTD 230053Z 00000KT 10SM CLR 21/12 A2991 RMK AO2 SLP129 T02060122

More Conditions Fewer Conditions

10-Day Weather Forecast

Almanac

Astronomy

Sep. 22, 2014 Rise Set
Actual Time 6:56 AM PDT 7:07 PM PDT
Civil Twilight 6:27 AM PDT 7:36 PM PDT
Nautical Twilight 5:52 AM PDT 8:11 PM PDT
Astronomical Twilight 5:16 AM PDT 8:46 PM PDT
Moon 5:27 AM PDT (9/22) 6:18 PM PDT (9/22)
Length of Visible Light 13h 09m
Length of Day
12h 10m
Tomorrow will be 3m 10s shorter.
Waning Crescent, 1% of the Moon is Illuminated
Today
Waning Crescent
Sep 24
New
Oct 1
First Quarter
Oct 8
Full
Oct 15
Last Quarter

Today's Extremes

State Highs State Lows

Community

WunderPhotos

Upload Photos

1,755,578 photos uploaded!

Nearby

Air Quality

  Air Quality AQ Index Pollutant
Yesterday Good
OZONE
Yesterday Good
PM2.5
Current Good
OZONE
Current Good
PM2.5
Monday Good
PM2.5
Tuesday Good
PM2.5

Snow Depth

Station Depth Elevation
North Fork 0 in 3120 ft
Mt. Howard 0 in 7910 ft
Blazed Alder 0 in 3650 ft
Daly Lake 0 in 3600 ft
Clackamas Lake 0 in 3400 ft

Earthquake Activity

City Distance Mag. Time & Date
No recent earthquake activity has been reported nearby.
Minimum magnitude displayed is 2.5.

Coastal Water Temperatures

Place Temperature
No Stations Reporting

Nearby Weather Stations